Huvudsida
METAR-TAF:

METAR-TAF

Flygplatser :

Sharurah, Saudiarabien

latitud: 17-28N, longitud: 047-07E, höjd: 720 m

Aktuellt väderrapport

Denna rapport gjordes för 35 minuter sedan, klockan 22:00 UTC
Vind 8 kt från ost
Temperatur 21°C
Fuktighet 38%
Tryck 1015 hPa
Sikt 10 km eller mer
Inga moln under 1 500 m eller inga cumulonimbus

METAR: OESH 152200Z 08008KT CAVOK 21/06 Q1015 NOSIG

Tid: 01:35 (22:35 UTC)

Väderprognos

Denna rapport gjordes för 11 timmar och 35 minuter sedan, klockan 11:00 UTC
Prognos gäller från 15 kl. 12 UTC till 16 kl. 18 UTC
Vind 13 kt från ost/nordost
Sikt 10 km eller mer
Inga moln under 1 500 m eller inga cumulonimbus
Blir
från 15 kl. 20 UTC till 15 kl. 22 UTC
Vind 10 kt från ost/sydost

TAF: OESH 151100Z 1512/1618 06013KT CAVOK BECMG 1520/1522 12010KT

Aktuella väderrapporter och prognoser från 4000 flygplatser (METAR- och TAF-rapporter).

De tillgängliga stationerna syns som gula och röda prickar på kartan.

För musen över prickarna för att se namnen på stationerna.

Klicka sedan för att få väderrapporter och prognoser.

För att ändra kartan: Klicka på de gröna knapparna med ett svart kors på för att zooma in; den gröna knappen med ett streck på för att zooma ut; eller på de gröna pilarna för angränsande kartor.


METAR-TAF: